createdAt,value
2023-02-27T00:00:54.255Z,3.48
2023-02-27T00:01:54.244Z,3.44
2023-02-27T00:02:54.285Z,3.50
2023-02-27T00:03:54.279Z,3.45
2023-02-27T00:04:54.206Z,3.45
2023-02-27T00:05:54.242Z,3.53
2023-02-27T00:06:54.184Z,3.44
2023-02-27T00:07:54.174Z,3.50
2023-02-27T00:08:54.230Z,3.53
2023-02-27T00:09:54.191Z,3.44
2023-02-27T00:10:54.168Z,3.50
2023-02-27T00:11:54.244Z,3.48
2023-02-27T00:12:54.116Z,3.50
2023-02-27T00:13:54.121Z,3.44
2023-02-27T00:14:54.112Z,3.44
2023-02-27T00:15:54.110Z,3.45
2023-02-27T00:16:54.075Z,3.45
2023-02-27T00:17:54.080Z,3.58
2023-02-27T00:18:54.085Z,3.56
2023-02-27T00:19:54.036Z,3.48
2023-02-27T00:20:54.051Z,3.53
2023-02-27T00:21:54.020Z,3.58
2023-02-27T00:22:54.036Z,3.55
2023-02-27T00:23:54.032Z,3.59
2023-02-27T00:24:53.990Z,3.58
2023-02-27T00:25:53.995Z,3.58
2023-02-27T00:26:53.988Z,3.63
2023-02-27T00:27:53.959Z,3.60
2023-02-27T00:28:53.942Z,3.55
2023-02-27T00:29:53.968Z,3.62
2023-02-27T00:30:53.974Z,3.62
2023-02-27T00:31:54.002Z,3.60
2023-02-27T00:32:53.904Z,3.56
2023-02-27T00:33:53.890Z,3.59
2023-02-27T00:34:53.875Z,3.59
2023-02-27T00:35:53.926Z,3.53
2023-02-27T00:36:53.855Z,3.60
2023-02-27T00:37:53.848Z,3.58
2023-02-27T00:38:53.843Z,3.59
2023-02-27T00:39:53.816Z,3.55
2023-02-27T00:40:53.827Z,3.47
2023-02-27T00:41:53.840Z,3.47
2023-02-27T00:42:53.852Z,3.50
2023-02-27T00:43:53.768Z,3.48
2023-02-27T00:44:53.763Z,3.50
2023-02-27T00:45:53.752Z,3.48
2023-02-27T00:46:53.842Z,3.45
2023-02-27T00:47:53.742Z,3.48
2023-02-27T00:48:53.743Z,3.41
2023-02-27T00:49:53.710Z,3.48
2023-02-27T00:50:53.704Z,3.48
2023-02-27T00:51:53.679Z,3.44
2023-02-27T00:52:53.666Z,3.42
2023-02-27T00:53:53.718Z,3.47
2023-02-27T00:54:53.656Z,3.41
2023-02-27T00:55:53.638Z,3.29
2023-02-27T00:56:53.622Z,3.29
2023-02-27T00:57:53.648Z,3.32
2023-02-27T00:58:53.642Z,3.31
2023-02-27T00:59:53.628Z,3.32
2023-02-27T01:00:53.631Z,3.25
2023-02-27T01:01:53.570Z,3.26
2023-02-27T01:02:53.602Z,3.26
2023-02-27T01:03:53.550Z,3.32
2023-02-27T01:04:53.533Z,3.29
2023-02-27T01:05:53.585Z,3.14
2023-02-27T01:06:53.511Z,3.23
2023-02-27T01:07:53.529Z,3.14
2023-02-27T01:08:53.507Z,3.16
2023-02-27T01:09:53.494Z,3.11
2023-02-27T01:10:53.476Z,3.11
2023-02-27T01:11:53.478Z,3.11
2023-02-27T01:12:53.463Z,3.22
2023-02-27T01:13:53.444Z,3.21
2023-02-27T01:14:53.457Z,3.16
2023-02-27T01:15:53.415Z,3.19
2023-02-27T01:16:53.427Z,3.22
2023-02-27T01:17:53.570Z,3.16
2023-02-27T01:18:53.379Z,3.22
2023-02-27T01:19:53.380Z,3.16
2023-02-27T01:20:53.360Z,3.16
2023-02-27T01:21:53.354Z,3.19
2023-02-27T01:22:53.334Z,3.21
2023-02-27T01:23:53.346Z,3.14
2023-02-27T01:24:53.359Z,3.18
2023-02-27T01:25:53.307Z,3.14
2023-02-27T01:26:53.372Z,3.18
2023-02-27T01:27:53.283Z,3.13
2023-02-27T01:28:53.276Z,3.19
2023-02-27T01:29:53.290Z,3.19
2023-02-27T01:30:53.349Z,3.19
2023-02-27T01:31:53.390Z,3.28
2023-02-27T01:32:53.228Z,3.25
2023-02-27T01:33:53.232Z,3.26
2023-02-27T01:34:53.264Z,3.31
2023-02-27T01:35:53.271Z,3.34
2023-02-27T01:36:53.211Z,3.34
2023-02-27T01:37:53.184Z,3.29
2023-02-27T01:38:53.196Z,3.31
2023-02-27T01:39:53.148Z,3.34
2023-02-27T01:40:53.195Z,3.23
2023-02-27T01:41:53.152Z,3.29
2023-02-27T01:42:53.112Z,3.31
2023-02-27T01:43:53.105Z,3.34
2023-02-27T01:44:53.109Z,3.32
2023-02-27T01:45:53.185Z,3.42
2023-02-27T01:46:53.104Z,3.47
2023-02-27T01:47:53.095Z,3.41
2023-02-27T01:48:53.062Z,3.42
2023-02-27T01:49:53.118Z,3.48
2023-02-27T01:50:53.046Z,3.45
2023-02-27T01:51:53.024Z,3.45
2023-02-27T01:52:53.032Z,3.45
2023-02-27T01:53:53.103Z,3.45
2023-02-27T01:54:52.984Z,3.45
2023-02-27T01:55:52.967Z,3.47
2023-02-27T01:56:52.973Z,3.50
2023-02-27T01:57:52.948Z,3.45
2023-02-27T01:58:52.933Z,3.47
2023-02-27T01:59:52.966Z,3.45
2023-02-27T02:00:53.018Z,3.53
2023-02-27T02:01:52.915Z,3.48
2023-02-27T02:02:52.913Z,3.45
2023-02-27T02:03:52.894Z,3.47
2023-02-27T02:04:52.876Z,3.47
2023-02-27T02:05:52.918Z,3.47
2023-02-27T02:06:52.847Z,3.42
2023-02-27T02:07:52.830Z,3.50
2023-02-27T02:08:52.830Z,3.50
2023-02-27T02:09:52.811Z,3.44
2023-02-27T02:10:52.820Z,3.45
2023-02-27T02:11:52.823Z,3.50
2023-02-27T02:12:52.781Z,3.56
2023-02-27T02:13:52.786Z,3.41
2023-02-27T02:14:52.749Z,3.47
2023-02-27T02:15:52.741Z,3.51
2023-02-27T02:16:52.809Z,3.51
2023-02-27T02:17:52.732Z,3.53
2023-02-27T02:18:52.762Z,3.41
2023-02-27T02:19:52.693Z,3.58
2023-02-27T02:20:52.688Z,3.55
2023-02-27T02:21:52.669Z,3.59
2023-02-27T02:22:52.682Z,3.60
2023-02-27T02:23:52.768Z,3.56
2023-02-27T02:24:52.640Z,3.60
2023-02-27T02:25:52.633Z,3.59
2023-02-27T02:26:52.654Z,3.62
2023-02-27T02:27:52.671Z,3.58
2023-02-27T02:28:52.592Z,3.59
2023-02-27T02:29:52.608Z,3.60
2023-02-27T02:30:52.711Z,3.59
2023-02-27T02:31:52.759Z,3.56
2023-02-27T02:32:52.548Z,3.56
2023-02-27T02:33:52.554Z,3.65
2023-02-27T02:34:52.547Z,3.48
2023-02-27T02:35:52.572Z,3.47
2023-02-27T02:36:52.539Z,3.42
2023-02-27T02:37:52.593Z,3.47
2023-02-27T02:38:52.486Z,3.59
2023-02-27T02:39:52.467Z,3.47
2023-02-27T02:40:52.466Z,3.53
2023-02-27T02:41:52.553Z,3.53
2023-02-27T02:42:53.375Z,3.63
2023-02-27T02:43:52.441Z,3.56
2023-02-27T02:44:52.415Z,3.55
2023-02-27T02:45:52.497Z,3.55
2023-02-27T02:46:52.414Z,3.56
2023-02-27T02:47:52.397Z,3.48
2023-02-27T02:48:52.385Z,3.53
2023-02-27T02:49:52.357Z,3.44
2023-02-27T02:50:52.372Z,3.48
2023-02-27T02:51:52.349Z,3.51
2023-02-27T02:52:52.327Z,3.45
2023-02-27T02:53:52.342Z,3.47
2023-02-27T02:54:52.347Z,3.53
2023-02-27T02:55:52.287Z,3.45
2023-02-27T02:56:52.286Z,3.51
2023-02-27T02:57:52.273Z,3.50
2023-02-27T02:58:52.254Z,3.50
2023-02-27T02:59:52.301Z,3.50
2023-02-27T03:00:52.257Z,3.50
2023-02-27T03:01:52.364Z,3.45
2023-02-27T03:02:52.212Z,3.42
2023-02-27T03:03:52.224Z,3.44
2023-02-27T03:04:52.199Z,3.50
2023-02-27T03:05:52.210Z,3.41
2023-02-27T03:06:52.211Z,3.44
2023-02-27T03:07:52.251Z,3.51
2023-02-27T03:08:52.146Z,3.41
2023-02-27T03:09:52.142Z,3.36
2023-02-27T03:10:52.126Z,3.45
2023-02-27T03:11:52.143Z,3.48
2023-02-27T03:12:52.113Z,3.41
2023-02-27T03:13:52.090Z,3.45
2023-02-27T03:14:52.079Z,3.47
2023-02-27T03:15:52.093Z,3.44
2023-02-27T03:16:52.051Z,3.44
2023-02-27T03:17:52.081Z,3.45
2023-02-27T03:18:52.052Z,3.42
2023-02-27T03:19:52.016Z,3.44
2023-02-27T03:20:52.009Z,3.41
2023-02-27T03:21:52.049Z,3.41
2023-02-27T03:22:52.004Z,3.41
2023-02-27T03:23:52.050Z,3.48
2023-02-27T03:24:51.958Z,3.44
2023-02-27T03:25:51.955Z,3.41
2023-02-27T03:26:51.958Z,3.40
2023-02-27T03:27:51.997Z,3.36
2023-02-27T03:28:51.944Z,3.40
2023-02-27T03:29:51.932Z,3.44
2023-02-27T03:30:52.073Z,3.44
2023-02-27T03:31:52.006Z,3.42
2023-02-27T03:32:51.890Z,3.40
2023-02-27T03:33:51.858Z,3.41
2023-02-27T03:34:51.849Z,3.34
2023-02-27T03:35:51.850Z,3.36
2023-02-27T03:36:51.827Z,3.32
2023-02-27T03:37:51.816Z,3.41
2023-02-27T03:38:51.925Z,3.40
2023-02-27T03:39:51.798Z,3.31
2023-02-27T03:40:51.781Z,3.32
2023-02-27T03:41:51.806Z,3.28
2023-02-27T03:42:51.779Z,3.31
2023-02-27T03:43:51.745Z,3.28
2023-02-27T03:44:52.489Z,3.34
2023-02-27T03:45:51.726Z,3.34
2023-02-27T03:46:51.725Z,3.29
2023-02-27T03:47:51.712Z,3.40
2023-02-27T03:48:51.685Z,3.32
2023-02-27T03:49:51.676Z,3.34
2023-02-27T03:50:51.666Z,3.44
2023-02-27T03:51:51.655Z,3.37
2023-02-27T03:52:51.661Z,3.40
2023-02-27T03:53:51.680Z,3.31
2023-02-27T03:54:51.646Z,3.31
2023-02-27T03:55:51.605Z,3.36
2023-02-27T03:56:51.605Z,3.36
2023-02-27T03:57:51.617Z,3.34
2023-02-27T03:58:51.581Z,3.31
2023-02-27T03:59:51.628Z,3.29
2023-02-27T04:00:51.561Z,3.34
2023-02-27T04:01:51.602Z,3.40
2023-02-27T04:02:51.688Z,3.31
2023-02-27T04:03:51.536Z,3.32
2023-02-27T04:04:51.528Z,3.31
2023-02-27T04:05:51.536Z,3.41
2023-02-27T04:06:51.485Z,3.36
2023-02-27T04:07:51.471Z,3.40
2023-02-27T04:08:51.621Z,3.31
2023-02-27T04:09:51.446Z,3.44
2023-02-27T04:10:51.471Z,3.37
2023-02-27T04:11:51.479Z,3.32
2023-02-27T04:12:51.413Z,3.34
2023-02-27T04:13:51.424Z,3.40
2023-02-27T04:14:51.394Z,3.40
2023-02-27T04:15:51.433Z,3.42
2023-02-27T04:16:51.368Z,3.40
2023-02-27T04:17:51.413Z,3.34
2023-02-27T04:18:51.372Z,3.31
2023-02-27T04:19:51.411Z,3.34
2023-02-27T04:20:51.339Z,3.26
2023-02-27T04:21:51.327Z,3.34
2023-02-27T04:22:51.298Z,3.32
2023-02-27T04:23:51.333Z,3.34
2023-02-27T04:24:51.287Z,3.21
2023-02-27T04:25:51.278Z,3.34
2023-02-27T04:26:51.305Z,3.31
2023-02-27T04:27:51.265Z,3.36
2023-02-27T04:28:51.242Z,3.42
2023-02-27T04:29:51.302Z,3.37
2023-02-27T04:30:51.287Z,3.31
2023-02-27T04:31:51.356Z,3.36
2023-02-27T04:32:51.262Z,3.32
2023-02-27T04:33:51.204Z,3.28
2023-02-27T04:34:51.192Z,3.29
2023-02-27T04:35:51.290Z,3.26
2023-02-27T04:36:51.154Z,3.34
2023-02-27T04:37:51.145Z,3.28
2023-02-27T04:38:51.154Z,3.21
2023-02-27T04:39:51.121Z,3.25
2023-02-27T04:40:51.112Z,3.11
2023-02-27T04:41:51.130Z,3.21
2023-02-27T04:42:51.108Z,3.23
2023-02-27T04:43:51.107Z,3.22
2023-02-27T04:44:51.058Z,3.31
2023-02-27T04:45:51.107Z,3.25
2023-02-27T04:46:51.035Z,3.19
2023-02-27T04:47:51.098Z,3.14
2023-02-27T04:48:51.022Z,3.21
2023-02-27T04:49:51.007Z,3.26
2023-02-27T04:50:51.001Z,3.18
2023-02-27T04:51:50.982Z,3.29
2023-02-27T04:52:50.970Z,3.22
2023-02-27T04:53:51.005Z,3.19
2023-02-27T04:54:50.954Z,3.29
2023-02-27T04:55:50.942Z,3.19
2023-02-27T04:56:50.953Z,3.18
2023-02-27T04:57:50.928Z,3.23
2023-02-27T04:58:50.926Z,3.16
2023-02-27T04:59:50.951Z,3.18
2023-02-27T05:00:50.912Z,3.16
2023-02-27T05:01:50.945Z,3.14
2023-02-27T05:02:50.921Z,3.13
2023-02-27T05:03:50.864Z,3.16
2023-02-27T05:04:50.838Z,3.11
2023-02-27T05:05:50.859Z,3.10
2023-02-27T05:06:50.835Z,3.08
2023-02-27T05:07:50.804Z,3.14
2023-02-27T05:08:50.803Z,3.13
2023-02-27T05:09:50.796Z,3.08
2023-02-27T05:10:50.765Z,3.14
2023-02-27T05:11:50.798Z,3.05
2023-02-27T05:12:50.768Z,3.13
2023-02-27T05:13:50.747Z,3.08
2023-02-27T05:14:50.753Z,3.10
2023-02-27T05:15:50.798Z,3.05
2023-02-27T05:16:50.700Z,3.10
2023-02-27T05:17:50.750Z,3.04
2023-02-27T05:18:50.695Z,3.04
2023-02-27T05:19:50.668Z,3.10
2023-02-27T05:20:50.690Z,3.08
2023-02-27T05:21:50.641Z,3.04
2023-02-27T05:22:50.644Z,3.10
2023-02-27T05:23:50.717Z,3.01
2023-02-27T05:24:50.616Z,2.97
2023-02-27T05:25:50.610Z,2.92
2023-02-27T05:26:50.597Z,2.86
2023-02-27T05:27:50.596Z,2.86
2023-02-27T05:28:50.583Z,2.90
2023-02-27T05:29:50.574Z,2.82
2023-02-27T05:30:50.573Z,2.83
2023-02-27T05:31:50.718Z,2.80
2023-02-27T05:32:50.523Z,2.80
2023-02-27T05:33:50.523Z,2.80
2023-02-27T05:34:50.523Z,2.85
2023-02-27T05:35:50.558Z,2.92
2023-02-27T05:36:50.487Z,2.86
2023-02-27T05:37:50.468Z,2.85
2023-02-27T05:38:50.461Z,2.86
2023-02-27T05:39:50.436Z,2.82
2023-02-27T05:40:50.430Z,2.85
2023-02-27T05:41:50.460Z,2.89
2023-02-27T05:42:50.415Z,2.85
2023-02-27T05:43:50.427Z,2.86
2023-02-27T05:44:50.413Z,2.92
2023-02-27T05:45:50.407Z,2.97
2023-02-27T05:46:50.378Z,2.97
2023-02-27T05:47:50.372Z,2.93
2023-02-27T05:48:50.338Z,3.03
2023-02-27T05:49:50.328Z,3.11
2023-02-27T05:50:50.310Z,3.07
2023-02-27T05:51:50.303Z,3.08
2023-02-27T05:52:50.300Z,2.97
2023-02-27T05:53:50.296Z,3.10
2023-02-27T05:54:50.284Z,3.07
2023-02-27T05:55:50.256Z,3.07
2023-02-27T05:56:50.248Z,3.18
2023-02-27T05:57:50.237Z,3.14
2023-02-27T05:58:50.222Z,3.16
2023-02-27T05:59:50.249Z,3.14
2023-02-27T06:00:50.215Z,3.22
2023-02-27T06:01:50.212Z,3.25
2023-02-27T06:02:50.258Z,3.23
2023-02-27T06:03:50.172Z,3.19
2023-02-27T06:04:50.159Z,3.14
2023-02-27T06:05:50.208Z,3.13
2023-02-27T06:06:50.223Z,3.11
2023-02-27T06:07:50.152Z,3.16
2023-02-27T06:08:50.119Z,3.18
2023-02-27T06:09:50.139Z,3.22
2023-02-27T06:10:50.095Z,3.22
2023-02-27T06:11:50.117Z,3.19
2023-02-27T06:12:50.082Z,3.22
2023-02-27T06:13:50.091Z,3.19
2023-02-27T06:14:50.045Z,3.28
2023-02-27T06:15:50.040Z,3.26
2023-02-27T06:16:50.110Z,3.25
2023-02-27T06:17:50.045Z,3.31
2023-02-27T06:18:50.032Z,3.44
2023-02-27T06:19:50.012Z,3.41
2023-02-27T06:20:49.999Z,3.36
2023-02-27T06:21:49.997Z,3.47
2023-02-27T06:22:49.959Z,3.45
2023-02-27T06:23:50.148Z,3.41
2023-02-27T06:24:49.980Z,3.51
2023-02-27T06:25:49.930Z,3.45
2023-02-27T06:26:49.940Z,3.48
2023-02-27T06:27:49.907Z,3.56
2023-02-27T06:28:49.896Z,3.55
2023-02-27T06:29:49.904Z,3.58
2023-02-27T06:30:49.899Z,3.63
2023-02-27T06:31:49.972Z,3.68
2023-02-27T06:32:49.881Z,3.70
2023-02-27T06:33:49.836Z,3.78
2023-02-27T06:34:49.861Z,3.84
2023-02-27T06:35:50.017Z,3.78
2023-02-27T06:36:49.850Z,3.87
2023-02-27T06:37:49.863Z,3.83
2023-02-27T06:38:49.770Z,3.84
2023-02-27T06:39:49.778Z,3.81
2023-02-27T06:40:49.760Z,3.83
2023-02-27T06:41:49.851Z,3.86
2023-02-27T06:42:49.779Z,3.86
2023-02-27T06:43:50.717Z,3.80
2023-02-27T06:44:49.706Z,3.86
2023-02-27T06:45:49.775Z,3.86
2023-02-27T06:46:49.681Z,3.80
2023-02-27T06:47:50.011Z,3.86
2023-02-27T06:48:49.665Z,3.88
2023-02-27T06:49:49.654Z,3.92
2023-02-27T06:50:50.146Z,3.86
2023-02-27T06:51:49.655Z,3.87
2023-02-27T06:52:49.644Z,3.76
2023-02-27T06:53:49.712Z,3.74
2023-02-27T06:54:49.623Z,3.70
2023-02-27T06:55:49.614Z,3.73
2023-02-27T06:56:49.617Z,3.69
2023-02-27T06:57:49.595Z,3.69
2023-02-27T06:58:49.548Z,3.77
2023-02-27T06:59:49.573Z,3.70
2023-02-27T07:00:49.540Z,3.70
2023-02-27T07:01:49.514Z,3.65
2023-02-27T07:02:49.617Z,3.77
2023-02-27T07:03:49.505Z,3.69
2023-02-27T07:04:49.587Z,3.66
2023-02-27T07:05:49.530Z,3.70
2023-02-27T07:07:35.978Z,3.70
2023-02-27T07:07:53.222Z,3.70
2023-02-27T07:09:00.798Z,3.69
2023-02-27T07:09:51.648Z,3.84
2023-02-27T07:10:50.290Z,3.95
2023-02-27T07:11:49.502Z,3.78
2023-02-27T07:12:49.529Z,3.74
2023-02-27T07:13:49.390Z,3.74
2023-02-27T07:14:50.327Z,3.84
2023-02-27T07:15:49.371Z,3.91
2023-02-27T07:16:49.412Z,3.88
2023-02-27T07:17:50.306Z,3.87
2023-02-27T07:18:49.327Z,3.87
2023-02-27T07:19:49.392Z,3.78
2023-02-27T07:20:50.281Z,3.80
2023-02-27T07:21:49.324Z,3.83
2023-02-27T07:22:49.318Z,3.81
2023-02-27T07:23:49.354Z,3.87
2023-02-27T07:24:49.294Z,3.94
2023-02-27T07:25:49.264Z,3.83
2023-02-27T07:26:49.322Z,3.94
2023-02-27T07:27:49.449Z,3.83
2023-02-27T07:28:49.213Z,3.86
2023-02-27T07:29:49.249Z,3.87
2023-02-27T07:30:49.259Z,3.83
2023-02-27T07:31:49.296Z,3.78
2023-02-27T07:32:49.189Z,3.81
2023-02-27T07:33:49.184Z,3.78
2023-02-27T07:34:49.156Z,3.78
2023-02-27T07:35:49.230Z,3.83
2023-02-27T07:36:49.207Z,3.83
2023-02-27T07:37:49.113Z,3.94
2023-02-27T07:38:49.132Z,3.95
2023-02-27T07:39:49.140Z,3.88
2023-02-27T07:40:49.090Z,3.92
2023-02-27T07:41:49.224Z,4.01
2023-02-27T07:42:49.397Z,3.96
2023-02-27T07:43:49.117Z,4.04
2023-02-27T07:44:49.050Z,4.04
2023-02-27T07:45:49.119Z,4.05
2023-02-27T07:46:49.120Z,4.05
2023-02-27T07:47:49.040Z,4.04
2023-02-27T07:48:49.006Z,4.08
2023-02-27T07:49:49.057Z,4.06
2023-02-27T07:50:49.232Z,4.10
2023-02-27T07:51:49.804Z,4.12
2023-02-27T07:52:48.947Z,4.06
2023-02-27T07:53:48.991Z,4.16
2023-02-27T07:54:48.963Z,4.16
2023-02-27T07:55:48.949Z,4.24
2023-02-27T07:56:48.928Z,4.19
2023-02-27T07:57:48.910Z,4.17
2023-02-27T07:58:49.009Z,4.16
2023-02-27T07:59:48.891Z,4.19
2023-02-27T08:00:48.953Z,4.20
2023-02-27T08:01:48.875Z,4.23
2023-02-27T08:02:49.776Z,4.17
2023-02-27T08:03:48.817Z,4.16
2023-02-27T08:04:48.922Z,4.32
2023-02-27T08:05:48.996Z,4.30
2023-02-27T08:06:48.794Z,4.37
2023-02-27T08:07:48.854Z,4.37
2023-02-27T08:08:48.771Z,4.37
2023-02-27T08:09:48.759Z,4.42
2023-02-27T08:10:48.774Z,4.48
2023-02-27T08:11:49.307Z,4.42
2023-02-27T08:12:48.722Z,4.58
2023-02-27T08:14:00.039Z,4.50
2023-02-27T08:14:49.808Z,4.53
2023-02-27T08:15:48.712Z,4.60
2023-02-27T08:16:49.087Z,4.73
2023-02-27T08:17:48.724Z,4.74
2023-02-27T08:18:48.659Z,4.80
2023-02-27T08:19:48.648Z,4.93
2023-02-27T08:20:48.634Z,5.04
2023-02-27T08:21:48.627Z,4.96
2023-02-27T08:22:48.741Z,4.97
2023-02-27T08:23:48.646Z,5.18
2023-02-27T08:26:05.415Z,5.33
2023-02-27T08:27:05.223Z,5.28
2023-02-27T08:28:05.243Z,5.28
2023-02-27T08:29:05.346Z,5.21
2023-02-27T08:30:05.202Z,5.21
2023-02-27T08:31:05.304Z,5.23
2023-02-27T08:32:05.313Z,5.20
2023-02-27T08:33:05.143Z,5.30
2023-02-27T08:34:10.279Z,5.28
2023-02-27T08:35:06.149Z,5.33
2023-02-27T08:36:05.240Z,5.43
2023-02-27T08:37:05.115Z,5.46
2023-02-27T08:38:05.083Z,5.46
2023-02-27T08:39:05.109Z,5.44
2023-02-27T08:40:05.104Z,5.44
2023-02-27T08:41:05.099Z,5.44
2023-02-27T08:42:05.170Z,5.39
2023-02-27T08:43:05.068Z,5.30
2023-02-27T08:44:05.034Z,5.29
2023-02-27T08:45:05.011Z,5.23
2023-02-27T08:46:05.228Z,5.26
2023-02-27T08:47:05.078Z,5.23
2023-02-27T08:48:05.083Z,5.38
2023-02-27T08:49:04.990Z,5.43
2023-02-27T08:50:04.963Z,5.44
2023-02-27T08:51:05.055Z,5.43
2023-02-27T08:52:04.936Z,5.46
2023-02-27T08:53:05.149Z,5.41
2023-02-27T08:54:04.917Z,5.41
2023-02-27T08:55:04.928Z,5.51
2023-02-27T08:56:04.888Z,5.44
2023-02-27T08:57:04.867Z,5.43
2023-02-27T08:58:04.907Z,5.59
2023-02-27T08:59:04.906Z,5.59
2023-02-27T09:00:04.872Z,5.71
2023-02-27T09:01:04.884Z,5.69
2023-02-27T09:02:04.815Z,5.66
2023-02-27T09:03:04.897Z,5.65
2023-02-27T09:04:04.842Z,5.68
2023-02-27T09:05:04.851Z,5.76
2023-02-27T09:06:04.824Z,5.86
2023-02-27T09:07:04.769Z,5.79
2023-02-27T09:08:04.753Z,5.83
2023-02-27T09:09:04.753Z,5.79
2023-02-27T09:10:04.771Z,5.83
2023-02-27T09:11:04.738Z,5.76
2023-02-27T09:12:04.706Z,5.79
2023-02-27T09:13:04.688Z,5.80
2023-02-27T09:14:04.774Z,5.90
2023-02-27T09:15:04.677Z,5.97
2023-02-27T09:16:04.678Z,5.91
2023-02-27T09:17:04.829Z,6.02
2023-02-27T09:18:04.662Z,5.98
2023-02-27T09:19:04.676Z,5.97
2023-02-27T09:20:04.619Z,6.11
2023-02-27T09:21:04.702Z,6.07
2023-02-27T09:22:04.596Z,6.19
2023-02-27T09:23:04.709Z,6.17
2023-02-27T09:24:17.161Z,6.20
2023-02-27T09:25:05.589Z,6.36
2023-02-27T09:26:04.603Z,6.28
2023-02-27T09:27:04.557Z,6.41
2023-02-27T09:28:04.530Z,6.38
2023-02-27T09:29:04.630Z,6.36
2023-02-27T09:30:04.542Z,6.35
2023-02-27T09:31:04.571Z,6.38
2023-02-27T09:32:04.662Z,6.35
2023-02-27T09:33:04.473Z,6.33
2023-02-27T09:34:04.474Z,6.39
2023-02-27T09:35:04.716Z,6.38
2023-02-27T09:36:04.595Z,6.38
2023-02-27T09:37:04.444Z,6.38
2023-02-27T09:38:04.458Z,6.44
2023-02-27T09:39:04.411Z,6.48
2023-02-27T09:40:04.446Z,6.56
2023-02-27T09:41:04.473Z,6.54
2023-02-27T09:42:04.573Z,6.56
2023-02-27T09:43:04.403Z,6.52
2023-02-27T09:44:04.347Z,6.62
2023-02-27T09:45:06.081Z,6.64
2023-02-27T09:46:04.384Z,6.69
2023-02-27T09:47:04.434Z,6.70
2023-02-27T09:48:04.306Z,6.70
2023-02-27T09:49:04.311Z,6.78
2023-02-27T09:50:04.331Z,6.88
2023-02-27T09:51:04.288Z,6.87
2023-02-27T09:52:04.284Z,6.87
2023-02-27T09:53:04.328Z,6.89
2023-02-27T09:54:04.273Z,6.88
2023-02-27T09:55:04.267Z,6.88
2023-02-27T09:56:07.182Z,6.88
2023-02-27T09:57:04.234Z,6.85
2023-02-27T09:58:04.212Z,6.77
2023-02-27T09:59:04.382Z,6.69
2023-02-27T10:00:04.200Z,6.72
2023-02-27T10:01:04.209Z,6.69
2023-02-27T10:02:04.301Z,6.63
2023-02-27T10:03:04.229Z,6.64
2023-02-27T10:04:04.120Z,6.69
2023-02-27T10:05:04.222Z,6.74
2023-02-27T10:06:05.682Z,6.70
2023-02-27T10:07:04.108Z,6.66
2023-02-27T10:08:04.069Z,6.74
2023-02-27T10:09:04.066Z,6.84
2023-02-27T10:10:04.050Z,6.79
2023-02-27T10:11:04.068Z,6.88
2023-02-27T10:12:05.814Z,6.81
2023-02-27T10:13:04.025Z,6.77
2023-02-27T10:14:04.011Z,6.70
2023-02-27T10:15:03.990Z,6.72
2023-02-27T10:16:04.027Z,6.62
2023-02-27T10:17:04.119Z,6.54
2023-02-27T10:18:16.676Z,6.57
2023-02-27T10:19:04.971Z,6.59
2023-02-27T10:20:03.970Z,6.56
2023-02-27T10:21:03.998Z,6.54
2023-02-27T10:22:03.917Z,6.49
2023-02-27T10:23:04.019Z,6.54
2023-02-27T10:24:06.023Z,6.59
2023-02-27T10:25:03.890Z,6.59
2023-02-27T10:26:03.888Z,6.54
2023-02-27T10:27:03.865Z,6.49
2023-02-27T10:28:03.873Z,6.62
2023-02-27T10:29:03.940Z,6.66
2023-02-27T10:30:03.833Z,6.63
2023-02-27T10:31:03.933Z,6.66
2023-02-27T10:32:03.872Z,6.72
2023-02-27T10:33:03.818Z,6.74
2023-02-27T10:34:03.905Z,6.82
2023-02-27T10:35:04.070Z,6.87
2023-02-27T10:36:03.875Z,6.93
2023-02-27T10:37:03.848Z,7.03
2023-02-27T10:38:04.675Z,7.00
2023-02-27T10:39:03.770Z,6.97
2023-02-27T10:40:04.585Z,7.06
2023-02-27T10:41:03.749Z,7.05
2023-02-27T10:42:03.737Z,7.02
2023-02-27T10:43:06.215Z,7.10
2023-02-27T10:44:03.706Z,7.03
2023-02-27T10:45:03.664Z,6.99
2023-02-27T10:46:04.598Z,7.03
2023-02-27T10:47:03.758Z,7.02
2023-02-27T10:48:03.627Z,7.00
2023-02-27T10:49:03.624Z,7.17
2023-02-27T10:50:03.642Z,7.14
2023-02-27T10:51:03.642Z,7.15
2023-02-27T10:52:03.594Z,7.20
2023-02-27T10:53:03.683Z,7.11
2023-02-27T10:54:03.568Z,7.07
2023-02-27T10:55:03.577Z,7.02
2023-02-27T10:56:03.767Z,6.96
2023-02-27T10:57:03.536Z,6.99
2023-02-27T10:58:03.520Z,7.00
2023-02-27T10:59:03.565Z,7.05
2023-02-27T11:00:03.498Z,6.95
2023-02-27T11:01:04.048Z,6.99
2023-02-27T11:02:04.044Z,7.03
2023-02-27T11:03:03.480Z,7.10
2023-02-27T11:04:03.486Z,7.07
2023-02-27T11:05:03.651Z,7.13
2023-02-27T11:06:03.541Z,7.07
2023-02-27T11:07:03.514Z,7.11
2023-02-27T11:08:03.407Z,7.13
2023-02-27T11:09:03.412Z,7.20
2023-02-27T11:10:03.384Z,7.07
2023-02-27T11:11:03.641Z,7.06
2023-02-27T11:12:03.372Z,7.02
2023-02-27T11:13:04.088Z,6.97
2023-02-27T11:14:03.346Z,6.97
2023-02-27T11:15:03.342Z,6.92
2023-02-27T11:16:03.558Z,6.93
2023-02-27T11:17:03.428Z,6.99
2023-02-27T11:18:03.290Z,7.02
2023-02-27T11:19:03.281Z,7.00
2023-02-27T11:20:03.283Z,7.07
2023-02-27T11:21:03.275Z,7.06
2023-02-27T11:22:03.282Z,7.11
2023-02-27T11:23:03.376Z,7.13
2023-02-27T11:24:03.250Z,7.11
2023-02-27T11:25:04.257Z,7.11
2023-02-27T11:26:03.208Z,7.18
2023-02-27T11:27:03.201Z,7.14
2023-02-27T11:28:03.179Z,7.07
2023-02-27T11:29:03.609Z,7.06
2023-02-27T11:30:03.156Z,7.07
2023-02-27T11:31:04.129Z,6.93
2023-02-27T11:32:04.251Z,7.02
2023-02-27T11:33:03.195Z,6.87
2023-02-27T11:34:03.147Z,6.89
2023-02-27T11:35:03.269Z,6.89
2023-02-27T11:36:04.161Z,6.81
2023-02-27T11:37:03.266Z,6.67
2023-02-27T11:38:04.142Z,6.72
2023-02-27T11:39:03.113Z,6.67
2023-02-27T11:40:03.099Z,6.59
2023-02-27T11:41:03.262Z,6.57
2023-02-27T11:42:03.031Z,6.57
2023-02-27T11:43:03.067Z,6.51
2023-02-27T11:44:03.010Z,6.54
2023-02-27T11:45:02.998Z,6.52
2023-02-27T11:46:22.210Z,6.57
2023-02-27T11:47:04.221Z,6.62
2023-02-27T11:48:02.966Z,6.54
2023-02-27T11:49:02.949Z,6.63
2023-02-27T11:50:02.944Z,6.69
2023-02-27T11:51:02.964Z,6.67
2023-02-27T11:52:02.918Z,6.72
2023-02-27T11:53:03.120Z,6.67
2023-02-27T11:54:02.920Z,6.81
2023-02-27T11:55:02.883Z,6.81
2023-02-27T11:56:02.960Z,6.85
2023-02-27T11:57:02.861Z,6.81
2023-02-27T11:58:02.851Z,6.77
2023-02-27T11:59:03.104Z,6.85
2023-02-27T12:00:02.872Z,6.85
2023-02-27T12:01:02.818Z,6.88
2023-02-27T12:02:02.823Z,6.82
2023-02-27T12:03:03.111Z,6.82
2023-02-27T12:04:03.163Z,6.81
2023-02-27T12:05:02.937Z,6.72
2023-02-27T12:06:02.934Z,6.78
2023-02-27T12:08:22.856Z,6.70
2023-02-27T12:09:22.788Z,6.63
2023-02-27T12:10:30.812Z,6.54
2023-02-27T12:14:09.710Z,6.28
2023-02-27T12:15:08.864Z,6.28
2023-02-27T12:16:08.852Z,6.28
2023-02-27T12:17:08.793Z,6.27
2023-02-27T12:18:08.749Z,6.22
2023-02-27T12:19:08.799Z,6.28
2023-02-27T12:20:08.722Z,6.30
2023-02-27T12:21:08.714Z,6.30
2023-02-27T12:22:08.828Z,6.20
2023-02-27T12:23:08.701Z,6.26
2023-02-27T12:24:08.709Z,6.12
2023-02-27T12:25:08.888Z,6.19
2023-02-27T12:26:08.655Z,6.24
2023-02-27T12:27:08.669Z,6.16
2023-02-27T12:28:08.659Z,6.28
2023-02-27T12:29:09.278Z,6.31
2023-02-27T12:30:08.633Z,6.27
2023-02-27T12:31:08.690Z,6.28
2023-02-27T12:32:08.771Z,6.26
2023-02-27T12:33:08.593Z,6.27
2023-02-27T12:34:08.874Z,6.26
2023-02-27T12:35:08.572Z,6.26
2023-02-27T12:36:08.594Z,6.19
2023-02-27T12:37:08.553Z,6.20
2023-02-27T12:38:08.529Z,6.11
2023-02-27T12:39:08.511Z,6.11
2023-02-27T12:40:08.699Z,6.09
2023-02-27T12:41:08.509Z,6.01
2023-02-27T12:42:08.477Z,6.01
2023-02-27T12:43:10.829Z,5.87
2023-02-27T12:44:08.459Z,5.86
2023-02-27T12:45:08.440Z,5.89
2023-02-27T12:46:08.545Z,5.93
2023-02-27T12:47:08.417Z,5.89
2023-02-27T12:48:08.403Z,5.83
2023-02-27T12:49:09.453Z,5.82
2023-02-27T12:50:08.398Z,5.90
2023-02-27T12:51:08.361Z,5.90
2023-02-27T12:52:08.397Z,5.91
2023-02-27T12:53:08.338Z,5.90
2023-02-27T12:54:08.352Z,5.91
2023-02-27T12:55:08.345Z,5.93
2023-02-27T12:56:08.309Z,5.97
2023-02-27T12:57:08.326Z,6.01
2023-02-27T12:58:08.411Z,5.98
2023-02-27T12:59:08.340Z,5.99
2023-02-27T13:00:08.312Z,5.90
2023-02-27T13:01:08.309Z,6.04
2023-02-27T13:02:08.254Z,6.08
2023-02-27T13:03:08.236Z,6.17
2023-02-27T13:04:09.328Z,6.20
2023-02-27T13:05:08.203Z,6.33
2023-02-27T13:06:08.199Z,6.36
2023-02-27T13:07:08.184Z,6.33
2023-02-27T13:08:08.184Z,6.39
2023-02-27T13:09:08.172Z,6.31
2023-02-27T13:10:08.177Z,6.35
2023-02-27T13:11:08.150Z,6.36
2023-02-27T13:12:08.132Z,6.36
2023-02-27T13:13:09.661Z,6.44
2023-02-27T13:14:08.134Z,6.35
2023-02-27T13:15:08.104Z,6.41
2023-02-27T13:16:08.132Z,6.31
2023-02-27T13:17:08.073Z,6.38
2023-02-27T13:18:08.075Z,6.39
2023-02-27T13:19:08.094Z,6.42
2023-02-27T13:20:08.054Z,6.42
2023-02-27T13:21:08.065Z,6.41
2023-02-27T13:22:08.085Z,6.33
2023-02-27T13:23:08.049Z,6.35
2023-02-27T13:24:07.994Z,6.33